sensor_id;sensor_type;location;lat;lon;timestamp;P1;durP1;ratioP1;P2;durP2;ratioP2
19519;SDS011;9904;52.246;20.898;2022-10-31T00:00:46;44.10;;;19.27;;
19519;SDS011;9904;52.246;20.898;2022-10-31T00:03:13;37.20;;;18.17;;
19519;SDS011;9904;52.246;20.898;2022-10-31T00:05:41;41.40;;;17.13;;
19519;SDS011;9904;52.246;20.898;2022-10-31T00:08:08;28.20;;;16.00;;
19519;SDS011;9904;52.246;20.898;2022-10-31T00:10:37;33.73;;;17.77;;
19519;SDS011;9904;52.246;20.898;2022-10-31T00:13:04;47.87;;;23.93;;
19519;SDS011;9904;52.246;20.898;2022-10-31T00:15:32;52.50;;;25.20;;
19519;SDS011;9904;52.246;20.898;2022-10-31T00:17:59;50.77;;;23.10;;
19519;SDS011;9904;52.246;20.898;2022-10-31T00:20:26;48.83;;;21.20;;
19519;SDS011;9904;52.246;20.898;2022-10-31T00:22:53;40.90;;;19.77;;
19519;SDS011;9904;52.246;20.898;2022-10-31T00:25:19;39.67;;;18.43;;
19519;SDS011;9904;52.246;20.898;2022-10-31T00:27:46;37.37;;;18.50;;
19519;SDS011;9904;52.246;20.898;2022-10-31T00:30:13;35.50;;;16.77;;
19519;SDS011;9904;52.246;20.898;2022-10-31T00:32:40;31.67;;;16.97;;
19519;SDS011;9904;52.246;20.898;2022-10-31T00:35:06;41.77;;;18.40;;
19519;SDS011;9904;52.246;20.898;2022-10-31T00:37:33;41.37;;;18.40;;
19519;SDS011;9904;52.246;20.898;2022-10-31T00:39:59;40.37;;;18.30;;
19519;SDS011;9904;52.246;20.898;2022-10-31T00:42:26;32.37;;;16.33;;
19519;SDS011;9904;52.246;20.898;2022-10-31T00:44:52;34.17;;;18.30;;
19519;SDS011;9904;52.246;20.898;2022-10-31T00:47:18;37.30;;;17.80;;
19519;SDS011;9904;52.246;20.898;2022-10-31T00:49:45;38.03;;;16.87;;
19519;SDS011;9904;52.246;20.898;2022-10-31T00:52:12;37.70;;;19.37;;
19519;SDS011;9904;52.246;20.898;2022-10-31T00:54:38;38.00;;;18.03;;
19519;SDS011;9904;52.246;20.898;2022-10-31T00:57:05;33.03;;;18.07;;
19519;SDS011;9904;52.246;20.898;2022-10-31T00:59:31;32.97;;;18.20;;
19519;SDS011;9904;52.246;20.898;2022-10-31T01:01:58;43.60;;;18.23;;
19519;SDS011;9904;52.246;20.898;2022-10-31T01:04:24;36.13;;;18.20;;
19519;SDS011;9904;52.246;20.898;2022-10-31T01:06:51;35.20;;;17.27;;
19519;SDS011;9904;52.246;20.898;2022-10-31T01:09:17;32.83;;;17.47;;
19519;SDS011;9904;52.246;20.898;2022-10-31T01:11:44;34.53;;;18.53;;
19519;SDS011;9904;52.246;20.898;2022-10-31T01:14:10;39.47;;;17.73;;
19519;SDS011;9904;52.246;20.898;2022-10-31T01:16:37;36.80;;;17.90;;
19519;SDS011;9904;52.246;20.898;2022-10-31T01:19:03;32.63;;;17.10;;
19519;SDS011;9904;52.246;20.898;2022-10-31T01:21:30;34.60;;;17.37;;
19519;SDS011;9904;52.246;20.898;2022-10-31T01:23:56;34.87;;;17.40;;
19519;SDS011;9904;52.246;20.898;2022-10-31T01:26:24;39.07;;;19.10;;
19519;SDS011;9904;52.246;20.898;2022-10-31T01:28:53;33.43;;;17.73;;
19519;SDS011;9904;52.246;20.898;2022-10-31T01:31:23;36.90;;;18.97;;
19519;SDS011;9904;52.246;20.898;2022-10-31T01:33:51;39.63;;;19.00;;
19519;SDS011;9904;52.246;20.898;2022-10-31T01:36:22;33.07;;;17.60;;
19519;SDS011;9904;52.246;20.898;2022-10-31T01:38:51;40.10;;;19.57;;
19519;SDS011;9904;52.246;20.898;2022-10-31T01:41:21;36.60;;;19.13;;
19519;SDS011;9904;52.246;20.898;2022-10-31T01:43:55;40.00;;;19.33;;
19519;SDS011;9904;52.246;20.898;2022-10-31T01:46:24;37.83;;;19.40;;
19519;SDS011;9904;52.246;20.898;2022-10-31T01:48:53;44.80;;;20.10;;
19519;SDS011;9904;52.246;20.898;2022-10-31T01:51:21;38.37;;;19.27;;
19519;SDS011;9904;52.246;20.898;2022-10-31T01:53:51;38.83;;;20.87;;
19519;SDS011;9904;52.246;20.898;2022-10-31T01:56:20;45.73;;;22.57;;
19519;SDS011;9904;52.246;20.898;2022-10-31T01:58:47;38.07;;;20.37;;
19519;SDS011;9904;52.246;20.898;2022-10-31T02:01:14;41.27;;;21.70;;
19519;SDS011;9904;52.246;20.898;2022-10-31T02:03:42;38.77;;;20.80;;
19519;SDS011;9904;52.246;20.898;2022-10-31T02:06:10;39.13;;;20.33;;
19519;SDS011;9904;52.246;20.898;2022-10-31T02:08:44;33.80;;;18.80;;
19519;SDS011;9904;52.246;20.898;2022-10-31T02:11:11;35.40;;;20.37;;
19519;SDS011;9904;52.246;20.898;2022-10-31T02:13:38;37.03;;;20.03;;
19519;SDS011;9904;52.246;20.898;2022-10-31T02:16:04;37.50;;;19.73;;
19519;SDS011;9904;52.246;20.898;2022-10-31T02:18:31;33.53;;;18.67;;
19519;SDS011;9904;52.246;20.898;2022-10-31T02:24:00;46.77;;;22.57;;
19519;SDS011;9904;52.246;20.898;2022-10-31T02:29:36;40.37;;;21.57;;
19519;SDS011;9904;52.246;20.898;2022-10-31T02:40:42;47.70;;;22.27;;
19519;SDS011;9904;52.246;20.898;2022-10-31T02:43:27;40.63;;;19.77;;
19519;SDS011;9904;52.246;20.898;2022-10-31T02:46:00;34.90;;;20.27;;
19519;SDS011;9904;52.246;20.898;2022-10-31T02:48:32;41.03;;;21.13;;
19519;SDS011;9904;52.246;20.898;2022-10-31T02:51:01;39.27;;;21.57;;
19519;SDS011;9904;52.246;20.898;2022-10-31T02:53:32;40.60;;;20.40;;
19519;SDS011;9904;52.246;20.898;2022-10-31T02:56:01;39.83;;;19.97;;
19519;SDS011;9904;52.246;20.898;2022-10-31T02:58:58;39.70;;;19.23;;
19519;SDS011;9904;52.246;20.898;2022-10-31T03:01:31;38.13;;;18.47;;
19519;SDS011;9904;52.246;20.898;2022-10-31T03:07:01;38.20;;;20.00;;
19519;SDS011;9904;52.246;20.898;2022-10-31T03:09:46;42.77;;;20.47;;
19519;SDS011;9904;52.246;20.898;2022-10-31T03:15:23;54.10;;;23.30;;
19519;SDS011;9904;52.246;20.898;2022-10-31T03:17:57;50.87;;;24.67;;
19519;SDS011;9904;52.246;20.898;2022-10-31T03:20:29;38.93;;;20.37;;
19519;SDS011;9904;52.246;20.898;2022-10-31T03:23:00;40.97;;;21.07;;
19519;SDS011;9904;52.246;20.898;2022-10-31T03:25:29;38.67;;;19.83;;
19519;SDS011;9904;52.246;20.898;2022-10-31T03:27:55;39.03;;;20.43;;
19519;SDS011;9904;52.246;20.898;2022-10-31T03:30:23;40.33;;;20.60;;
19519;SDS011;9904;52.246;20.898;2022-10-31T03:32:51;48.17;;;26.10;;
19519;SDS011;9904;52.246;20.898;2022-10-31T03:35:19;46.13;;;21.83;;
19519;SDS011;9904;52.246;20.898;2022-10-31T03:37:47;39.83;;;20.20;;
19519;SDS011;9904;52.246;20.898;2022-10-31T03:40:15;35.30;;;19.13;;
19519;SDS011;9904;52.246;20.898;2022-10-31T03:42:43;44.53;;;21.93;;
19519;SDS011;9904;52.246;20.898;2022-10-31T03:45:23;39.60;;;19.70;;
19519;SDS011;9904;52.246;20.898;2022-10-31T03:47:52;38.13;;;21.07;;
19519;SDS011;9904;52.246;20.898;2022-10-31T03:50:20;41.90;;;20.20;;
19519;SDS011;9904;52.246;20.898;2022-10-31T03:52:49;39.80;;;18.73;;
19519;SDS011;9904;52.246;20.898;2022-10-31T03:55:22;40.73;;;21.37;;
19519;SDS011;9904;52.246;20.898;2022-10-31T03:58:00;34.90;;;18.87;;
19519;SDS011;9904;52.246;20.898;2022-10-31T04:00:30;41.43;;;19.60;;
19519;SDS011;9904;52.246;20.898;2022-10-31T04:03:04;42.27;;;19.87;;
19519;SDS011;9904;52.246;20.898;2022-10-31T04:05:37;40.23;;;20.87;;
19519;SDS011;9904;52.246;20.898;2022-10-31T04:08:05;39.33;;;20.97;;
19519;SDS011;9904;52.246;20.898;2022-10-31T04:10:35;36.43;;;19.10;;
19519;SDS011;9904;52.246;20.898;2022-10-31T04:13:04;35.83;;;19.10;;
19519;SDS011;9904;52.246;20.898;2022-10-31T04:15:33;39.33;;;20.17;;
19519;SDS011;9904;52.246;20.898;2022-10-31T04:18:01;44.03;;;22.63;;
19519;SDS011;9904;52.246;20.898;2022-10-31T04:20:31;41.47;;;21.67;;
19519;SDS011;9904;52.246;20.898;2022-10-31T04:23:02;46.80;;;23.30;;
19519;SDS011;9904;52.246;20.898;2022-10-31T04:25:29;46.07;;;22.67;;
19519;SDS011;9904;52.246;20.898;2022-10-31T04:27:56;40.47;;;22.33;;
19519;SDS011;9904;52.246;20.898;2022-10-31T04:30:23;42.13;;;22.83;;
19519;SDS011;9904;52.246;20.898;2022-10-31T04:32:49;48.67;;;22.40;;
19519;SDS011;9904;52.246;20.898;2022-10-31T04:35:16;49.97;;;27.03;;
19519;SDS011;9904;52.246;20.898;2022-10-31T04:37:43;44.90;;;23.47;;
19519;SDS011;9904;52.246;20.898;2022-10-31T04:40:09;48.93;;;25.20;;
19519;SDS011;9904;52.246;20.898;2022-10-31T04:42:36;52.60;;;25.43;;
19519;SDS011;9904;52.246;20.898;2022-10-31T04:45:03;48.17;;;25.10;;
19519;SDS011;9904;52.246;20.898;2022-10-31T04:47:31;49.23;;;25.47;;
19519;SDS011;9904;52.246;20.898;2022-10-31T04:49:58;51.73;;;24.17;;
19519;SDS011;9904;52.246;20.898;2022-10-31T04:52:25;56.00;;;26.87;;
19519;SDS011;9904;52.246;20.898;2022-10-31T04:54:51;49.93;;;25.97;;
19519;SDS011;9904;52.246;20.898;2022-10-31T04:57:18;52.30;;;26.63;;
19519;SDS011;9904;52.246;20.898;2022-10-31T04:59:44;57.30;;;26.17;;
19519;SDS011;9904;52.246;20.898;2022-10-31T05:02:11;62.93;;;27.77;;
19519;SDS011;9904;52.246;20.898;2022-10-31T05:04:37;53.20;;;26.40;;
19519;SDS011;9904;52.246;20.898;2022-10-31T05:07:04;59.47;;;27.70;;
19519;SDS011;9904;52.246;20.898;2022-10-31T05:09:30;50.97;;;25.90;;
19519;SDS011;9904;52.246;20.898;2022-10-31T05:11:57;47.93;;;25.60;;
19519;SDS011;9904;52.246;20.898;2022-10-31T05:14:23;50.47;;;26.40;;
19519;SDS011;9904;52.246;20.898;2022-10-31T05:16:51;54.23;;;25.90;;
19519;SDS011;9904;52.246;20.898;2022-10-31T05:19:17;57.07;;;28.80;;
19519;SDS011;9904;52.246;20.898;2022-10-31T05:21:44;49.47;;;25.90;;
19519;SDS011;9904;52.246;20.898;2022-10-31T05:24:10;46.87;;;25.50;;
19519;SDS011;9904;52.246;20.898;2022-10-31T05:26:37;45.37;;;23.73;;
19519;SDS011;9904;52.246;20.898;2022-10-31T05:29:03;47.47;;;24.07;;
19519;SDS011;9904;52.246;20.898;2022-10-31T05:31:30;51.87;;;24.53;;
19519;SDS011;9904;52.246;20.898;2022-10-31T05:33:56;48.13;;;24.73;;
19519;SDS011;9904;52.246;20.898;2022-10-31T05:36:23;44.50;;;24.00;;
19519;SDS011;9904;52.246;20.898;2022-10-31T05:38:50;47.60;;;24.13;;
19519;SDS011;9904;52.246;20.898;2022-10-31T05:41:16;44.60;;;23.67;;
19519;SDS011;9904;52.246;20.898;2022-10-31T05:43:43;49.27;;;24.23;;
19519;SDS011;9904;52.246;20.898;2022-10-31T05:46:10;44.87;;;23.87;;
19519;SDS011;9904;52.246;20.898;2022-10-31T05:48:36;38.77;;;22.87;;
19519;SDS011;9904;52.246;20.898;2022-10-31T05:51:03;41.30;;;22.50;;
19519;SDS011;9904;52.246;20.898;2022-10-31T05:53:29;46.83;;;24.27;;
19519;SDS011;9904;52.246;20.898;2022-10-31T05:55:56;49.73;;;23.37;;
19519;SDS011;9904;52.246;20.898;2022-10-31T05:58:22;50.20;;;23.70;;
19519;SDS011;9904;52.246;20.898;2022-10-31T06:00:50;46.00;;;22.80;;
19519;SDS011;9904;52.246;20.898;2022-10-31T06:03:17;41.33;;;22.27;;
19519;SDS011;9904;52.246;20.898;2022-10-31T06:05:43;41.13;;;21.97;;
19519;SDS011;9904;52.246;20.898;2022-10-31T06:08:17;39.93;;;23.17;;
19519;SDS011;9904;52.246;20.898;2022-10-31T06:10:44;42.07;;;22.37;;
19519;SDS011;9904;52.246;20.898;2022-10-31T06:13:10;42.57;;;21.97;;
19519;SDS011;9904;52.246;20.898;2022-10-31T06:15:37;43.73;;;23.27;;
19519;SDS011;9904;52.246;20.898;2022-10-31T06:18:04;42.70;;;22.83;;
19519;SDS011;9904;52.246;20.898;2022-10-31T06:20:31;43.17;;;23.37;;
19519;SDS011;9904;52.246;20.898;2022-10-31T06:22:58;42.23;;;22.27;;
19519;SDS011;9904;52.246;20.898;2022-10-31T06:25:25;38.27;;;20.70;;
19519;SDS011;9904;52.246;20.898;2022-10-31T06:27:52;39.07;;;20.43;;
19519;SDS011;9904;52.246;20.898;2022-10-31T06:30:18;38.43;;;19.87;;
19519;SDS011;9904;52.246;20.898;2022-10-31T06:32:46;35.03;;;19.77;;
19519;SDS011;9904;52.246;20.898;2022-10-31T06:35:12;32.93;;;18.47;;
19519;SDS011;9904;52.246;20.898;2022-10-31T06:37:39;29.40;;;17.77;;
19519;SDS011;9904;52.246;20.898;2022-10-31T06:40:05;36.67;;;18.20;;
19519;SDS011;9904;52.246;20.898;2022-10-31T06:42:32;31.87;;;18.37;;
19519;SDS011;9904;52.246;20.898;2022-10-31T06:44:59;33.67;;;18.30;;
19519;SDS011;9904;52.246;20.898;2022-10-31T06:47:25;37.00;;;19.50;;
19519;SDS011;9904;52.246;20.898;2022-10-31T06:49:52;34.23;;;19.20;;
19519;SDS011;9904;52.246;20.898;2022-10-31T06:52:18;44.13;;;20.00;;
19519;SDS011;9904;52.246;20.898;2022-10-31T06:54:45;35.97;;;19.30;;
19519;SDS011;9904;52.246;20.898;2022-10-31T06:57:11;35.37;;;19.40;;
19519;SDS011;9904;52.246;20.898;2022-10-31T06:59:38;35.17;;;18.00;;
19519;SDS011;9904;52.246;20.898;2022-10-31T07:02:04;34.73;;;18.80;;
19519;SDS011;9904;52.246;20.898;2022-10-31T07:04:31;32.20;;;18.50;;
19519;SDS011;9904;52.246;20.898;2022-10-31T07:07:01;32.93;;;18.27;;
19519;SDS011;9904;52.246;20.898;2022-10-31T07:09:28;33.10;;;18.90;;
19519;SDS011;9904;52.246;20.898;2022-10-31T07:11:54;36.60;;;19.07;;
19519;SDS011;9904;52.246;20.898;2022-10-31T07:14:21;33.27;;;17.93;;
19519;SDS011;9904;52.246;20.898;2022-10-31T07:16:48;32.17;;;17.43;;
19519;SDS011;9904;52.246;20.898;2022-10-31T07:19:16;33.57;;;17.60;;
19519;SDS011;9904;52.246;20.898;2022-10-31T07:21:43;33.00;;;17.37;;
19519;SDS011;9904;52.246;20.898;2022-10-31T07:24:10;30.67;;;16.83;;
19519;SDS011;9904;52.246;20.898;2022-10-31T07:26:36;31.33;;;17.00;;
19519;SDS011;9904;52.246;20.898;2022-10-31T07:29:03;25.13;;;14.60;;
19519;SDS011;9904;52.246;20.898;2022-10-31T07:31:29;27.37;;;14.67;;
19519;SDS011;9904;52.246;20.898;2022-10-31T07:33:56;34.47;;;14.37;;
19519;SDS011;9904;52.246;20.898;2022-10-31T07:36:22;24.47;;;14.33;;
19519;SDS011;9904;52.246;20.898;2022-10-31T07:38:49;27.17;;;14.67;;
19519;SDS011;9904;52.246;20.898;2022-10-31T07:41:16;23.53;;;13.00;;
19519;SDS011;9904;52.246;20.898;2022-10-31T07:43:42;23.07;;;12.43;;
19519;SDS011;9904;52.246;20.898;2022-10-31T07:46:09;25.77;;;12.77;;
19519;SDS011;9904;52.246;20.898;2022-10-31T07:48:37;24.13;;;13.07;;
19519;SDS011;9904;52.246;20.898;2022-10-31T07:51:04;25.13;;;12.80;;
19519;SDS011;9904;52.246;20.898;2022-10-31T07:53:31;29.53;;;12.47;;
19519;SDS011;9904;52.246;20.898;2022-10-31T07:55:57;21.90;;;12.50;;
19519;SDS011;9904;52.246;20.898;2022-10-31T07:58:25;26.47;;;11.00;;
19519;SDS011;9904;52.246;20.898;2022-10-31T08:00:52;16.73;;;9.57;;
19519;SDS011;9904;52.246;20.898;2022-10-31T08:03:19;21.90;;;10.70;;
19519;SDS011;9904;52.246;20.898;2022-10-31T08:05:46;18.57;;;10.90;;
19519;SDS011;9904;52.246;20.898;2022-10-31T08:08:13;18.73;;;9.23;;
19519;SDS011;9904;52.246;20.898;2022-10-31T08:10:43;19.47;;;8.77;;
19519;SDS011;9904;52.246;20.898;2022-10-31T08:13:11;17.77;;;8.73;;
19519;SDS011;9904;52.246;20.898;2022-10-31T08:15:38;17.60;;;8.80;;
19519;SDS011;9904;52.246;20.898;2022-10-31T08:18:13;18.60;;;7.97;;
19519;SDS011;9904;52.246;20.898;2022-10-31T08:20:44;18.57;;;8.17;;
19519;SDS011;9904;52.246;20.898;2022-10-31T08:23:11;18.50;;;8.57;;
19519;SDS011;9904;52.246;20.898;2022-10-31T08:25:38;16.23;;;9.43;;
19519;SDS011;9904;52.246;20.898;2022-10-31T08:28:05;15.53;;;8.17;;
19519;SDS011;9904;52.246;20.898;2022-10-31T08:30:34;15.70;;;8.67;;
19519;SDS011;9904;52.246;20.898;2022-10-31T08:33:05;16.03;;;8.80;;
19519;SDS011;9904;52.246;20.898;2022-10-31T08:35:34;16.23;;;9.07;;
19519;SDS011;9904;52.246;20.898;2022-10-31T08:38:01;20.30;;;9.63;;
19519;SDS011;9904;52.246;20.898;2022-10-31T08:40:29;13.30;;;8.48;;
19519;SDS011;9904;52.246;20.898;2022-10-31T08:42:58;15.90;;;8.87;;
19519;SDS011;9904;52.246;20.898;2022-10-31T08:45:29;17.43;;;9.53;;
19519;SDS011;9904;52.246;20.898;2022-10-31T08:48:00;16.02;;;8.98;;
19519;SDS011;9904;52.246;20.898;2022-10-31T08:50:29;18.93;;;9.57;;
19519;SDS011;9904;52.246;20.898;2022-10-31T08:52:59;17.50;;;9.57;;
19519;SDS011;9904;52.246;20.898;2022-10-31T08:55:32;16.73;;;9.35;;
19519;SDS011;9904;52.246;20.898;2022-10-31T08:58:03;19.20;;;9.93;;
19519;SDS011;9904;52.246;20.898;2022-10-31T09:00:31;18.60;;;9.77;;
19519;SDS011;9904;52.246;20.898;2022-10-31T09:02:58;21.57;;;10.30;;
19519;SDS011;9904;52.246;20.898;2022-10-31T09:05:26;16.60;;;9.50;;
19519;SDS011;9904;52.246;20.898;2022-10-31T09:07:59;25.93;;;11.77;;
19519;SDS011;9904;52.246;20.898;2022-10-31T09:10:28;19.20;;;11.27;;
19519;SDS011;9904;52.246;20.898;2022-10-31T09:13:02;19.67;;;10.67;;
19519;SDS011;9904;52.246;20.898;2022-10-31T09:15:35;20.60;;;11.40;;
19519;SDS011;9904;52.246;20.898;2022-10-31T09:18:02;17.07;;;10.63;;
19519;SDS011;9904;52.246;20.898;2022-10-31T09:20:30;19.17;;;11.33;;
19519;SDS011;9904;52.246;20.898;2022-10-31T09:22:58;20.23;;;12.03;;
19519;SDS011;9904;52.246;20.898;2022-10-31T09:25:26;17.17;;;11.47;;
19519;SDS011;9904;52.246;20.898;2022-10-31T09:27:59;27.33;;;12.20;;
19519;SDS011;9904;52.246;20.898;2022-10-31T09:30:28;22.57;;;11.73;;
19519;SDS011;9904;52.246;20.898;2022-10-31T09:32:56;24.33;;;12.13;;
19519;SDS011;9904;52.246;20.898;2022-10-31T09:35:24;21.43;;;12.50;;
19519;SDS011;9904;52.246;20.898;2022-10-31T09:37:55;23.37;;;11.47;;
19519;SDS011;9904;52.246;20.898;2022-10-31T09:40:23;25.67;;;12.23;;
19519;SDS011;9904;52.246;20.898;2022-10-31T09:43:09;24.10;;;11.63;;
19519;SDS011;9904;52.246;20.898;2022-10-31T09:48:17;23.27;;;12.03;;
19519;SDS011;9904;52.246;20.898;2022-10-31T09:53:28;22.40;;;12.30;;
19519;SDS011;9904;52.246;20.898;2022-10-31T09:55:56;20.10;;;11.33;;
19519;SDS011;9904;52.246;20.898;2022-10-31T09:58:25;22.03;;;11.57;;
19519;SDS011;9904;52.246;20.898;2022-10-31T10:00:53;24.67;;;11.47;;
19519;SDS011;9904;52.246;20.898;2022-10-31T10:06:15;21.27;;;11.60;;
19519;SDS011;9904;52.246;20.898;2022-10-31T10:08:45;25.20;;;12.47;;
19519;SDS011;9904;52.246;20.898;2022-10-31T10:14:28;22.83;;;12.27;;
19519;SDS011;9904;52.246;20.898;2022-10-31T10:22:51;21.20;;;12.60;;
19519;SDS011;9904;52.246;20.898;2022-10-31T10:25:24;25.63;;;13.50;;
19519;SDS011;9904;52.246;20.898;2022-10-31T10:31:08;26.63;;;14.10;;
19519;SDS011;9904;52.246;20.898;2022-10-31T10:33:47;33.50;;;14.00;;
19519;SDS011;9904;52.246;20.898;2022-10-31T10:36:54;25.97;;;14.43;;
19519;SDS011;9904;52.246;20.898;2022-10-31T10:39:17;26.90;;;14.40;;
19519;SDS011;9904;52.246;20.898;2022-10-31T10:41:48;29.80;;;14.37;;
19519;SDS011;9904;52.246;20.898;2022-10-31T10:44:38;27.30;;;15.03;;
19519;SDS011;9904;52.246;20.898;2022-10-31T10:47:25;34.53;;;15.20;;
19519;SDS011;9904;52.246;20.898;2022-10-31T10:50:10;25.93;;;14.87;;
19519;SDS011;9904;52.246;20.898;2022-10-31T10:58:38;34.57;;;16.57;;
19519;SDS011;9904;52.246;20.898;2022-10-31T11:01:10;32.30;;;17.17;;
19519;SDS011;9904;52.246;20.898;2022-10-31T11:03:38;32.67;;;17.60;;
19519;SDS011;9904;52.246;20.898;2022-10-31T11:06:15;34.43;;;16.57;;
19519;SDS011;9904;52.246;20.898;2022-10-31T11:08:42;35.30;;;18.83;;
19519;SDS011;9904;52.246;20.898;2022-10-31T11:11:19;38.37;;;19.10;;
19519;SDS011;9904;52.246;20.898;2022-10-31T11:13:57;35.67;;;19.77;;
19519;SDS011;9904;52.246;20.898;2022-10-31T11:19:13;33.67;;;19.47;;
19519;SDS011;9904;52.246;20.898;2022-10-31T11:21:42;37.00;;;19.17;;
19519;SDS011;9904;52.246;20.898;2022-10-31T11:24:22;35.80;;;19.47;;
19519;SDS011;9904;52.246;20.898;2022-10-31T11:26:51;34.43;;;19.53;;
19519;SDS011;9904;52.246;20.898;2022-10-31T11:29:31;33.53;;;19.63;;
19519;SDS011;9904;52.246;20.898;2022-10-31T11:31:58;42.23;;;20.00;;
19519;SDS011;9904;52.246;20.898;2022-10-31T11:34:27;36.83;;;21.13;;
19519;SDS011;9904;52.246;20.898;2022-10-31T11:36:58;35.80;;;20.33;;
19519;SDS011;9904;52.246;20.898;2022-10-31T11:39:39;35.90;;;21.83;;
19519;SDS011;9904;52.246;20.898;2022-10-31T11:42:07;40.13;;;21.20;;
19519;SDS011;9904;52.246;20.898;2022-10-31T11:44:34;38.87;;;21.13;;
19519;SDS011;9904;52.246;20.898;2022-10-31T11:47:01;38.67;;;20.43;;
19519;SDS011;9904;52.246;20.898;2022-10-31T11:52:12;39.90;;;21.00;;
19519;SDS011;9904;52.246;20.898;2022-10-31T11:54:57;42.83;;;22.47;;
19519;SDS011;9904;52.246;20.898;2022-10-31T11:57:26;37.93;;;21.20;;
19519;SDS011;9904;52.246;20.898;2022-10-31T11:59:57;39.73;;;21.93;;
19519;SDS011;9904;52.246;20.898;2022-10-31T12:02:26;47.23;;;23.47;;
19519;SDS011;9904;52.246;20.898;2022-10-31T12:04:58;46.33;;;22.93;;
19519;SDS011;9904;52.246;20.898;2022-10-31T12:07:28;40.87;;;22.57;;
19519;SDS011;9904;52.246;20.898;2022-10-31T12:09:55;42.43;;;22.27;;
19519;SDS011;9904;52.246;20.898;2022-10-31T12:12:34;40.93;;;22.23;;
19519;SDS011;9904;52.246;20.898;2022-10-31T12:15:27;44.10;;;22.27;;
19519;SDS011;9904;52.246;20.898;2022-10-31T12:20:50;41.40;;;22.20;;
19519;SDS011;9904;52.246;20.898;2022-10-31T12:24:15;52.00;;;22.77;;
19519;SDS011;9904;52.246;20.898;2022-10-31T12:26:31;44.27;;;22.50;;
19519;SDS011;9904;52.246;20.898;2022-10-31T12:31:49;44.53;;;21.23;;
19519;SDS011;9904;52.246;20.898;2022-10-31T12:37:15;44.80;;;22.60;;
19519;SDS011;9904;52.246;20.898;2022-10-31T12:45:45;41.00;;;21.47;;
19519;SDS011;9904;52.246;20.898;2022-10-31T12:50:53;45.40;;;21.27;;
19519;SDS011;9904;52.246;20.898;2022-10-31T12:53:31;42.67;;;21.70;;
19519;SDS011;9904;52.246;20.898;2022-10-31T12:56:40;43.00;;;20.83;;
19519;SDS011;9904;52.246;20.898;2022-10-31T13:02:06;38.43;;;20.83;;
19519;SDS011;9904;52.246;20.898;2022-10-31T13:05:27;41.60;;;20.77;;
19519;SDS011;9904;52.246;20.898;2022-10-31T13:07:36;41.07;;;22.10;;
19519;SDS011;9904;52.246;20.898;2022-10-31T13:10:14;43.30;;;21.73;;
19519;SDS011;9904;52.246;20.898;2022-10-31T13:12:43;48.13;;;22.60;;
19519;SDS011;9904;52.246;20.898;2022-10-31T13:15:32;44.23;;;22.07;;
19519;SDS011;9904;52.246;20.898;2022-10-31T13:17:59;42.93;;;22.40;;
19519;SDS011;9904;52.246;20.898;2022-10-31T13:20:42;49.47;;;23.67;;
19519;SDS011;9904;52.246;20.898;2022-10-31T13:23:19;45.70;;;23.90;;
19519;SDS011;9904;52.246;20.898;2022-10-31T13:26:19;47.17;;;24.17;;
19519;SDS011;9904;52.246;20.898;2022-10-31T13:31:55;47.43;;;23.93;;
19519;SDS011;9904;52.246;20.898;2022-10-31T13:34:23;51.93;;;23.40;;
19519;SDS011;9904;52.246;20.898;2022-10-31T13:36:58;42.50;;;23.20;;
19519;SDS011;9904;52.246;20.898;2022-10-31T13:39:49;47.40;;;24.60;;
19519;SDS011;9904;52.246;20.898;2022-10-31T13:42:42;51.37;;;24.67;;
19519;SDS011;9904;52.246;20.898;2022-10-31T13:45:17;47.80;;;24.37;;
19519;SDS011;9904;52.246;20.898;2022-10-31T13:47:56;50.07;;;25.07;;
19519;SDS011;9904;52.246;20.898;2022-10-31T13:50:30;49.60;;;24.67;;
19519;SDS011;9904;52.246;20.898;2022-10-31T13:53:11;46.00;;;24.67;;
19519;SDS011;9904;52.246;20.898;2022-10-31T13:58:27;57.87;;;27.80;;
19519;SDS011;9904;52.246;20.898;2022-10-31T14:03:46;60.00;;;29.77;;
19519;SDS011;9904;52.246;20.898;2022-10-31T14:06:35;59.47;;;28.97;;
19519;SDS011;9904;52.246;20.898;2022-10-31T14:09:02;59.13;;;28.90;;
19519;SDS011;9904;52.246;20.898;2022-10-31T14:11:29;57.27;;;29.07;;
19519;SDS011;9904;52.246;20.898;2022-10-31T14:14:02;56.60;;;27.27;;
19519;SDS011;9904;52.246;20.898;2022-10-31T14:16:30;55.60;;;28.00;;
19519;SDS011;9904;52.246;20.898;2022-10-31T14:19:02;53.27;;;28.03;;
19519;SDS011;9904;52.246;20.898;2022-10-31T14:21:36;58.83;;;27.63;;
19519;SDS011;9904;52.246;20.898;2022-10-31T14:26:57;57.47;;;28.00;;
19519;SDS011;9904;52.246;20.898;2022-10-31T14:29:28;60.53;;;26.93;;
19519;SDS011;9904;52.246;20.898;2022-10-31T14:32:05;62.13;;;29.27;;
19519;SDS011;9904;52.246;20.898;2022-10-31T14:34:58;59.13;;;28.93;;
19519;SDS011;9904;52.246;20.898;2022-10-31T14:43:18;60.10;;;29.40;;
19519;SDS011;9904;52.246;20.898;2022-10-31T14:45:59;64.27;;;31.00;;
19519;SDS011;9904;52.246;20.898;2022-10-31T14:51:18;67.97;;;30.90;;
19519;SDS011;9904;52.246;20.898;2022-10-31T14:53:50;69.10;;;30.57;;
19519;SDS011;9904;52.246;20.898;2022-10-31T14:58:52;78.70;;;31.73;;
19519;SDS011;9904;52.246;20.898;2022-10-31T15:01:31;74.83;;;32.17;;
19519;SDS011;9904;52.246;20.898;2022-10-31T15:04:36;86.53;;;32.67;;
19519;SDS011;9904;52.246;20.898;2022-10-31T15:07:00;74.73;;;31.07;;
19519;SDS011;9904;52.246;20.898;2022-10-31T15:09:31;79.83;;;32.63;;
19519;SDS011;9904;52.246;20.898;2022-10-31T15:11:59;91.27;;;33.57;;
19519;SDS011;9904;52.246;20.898;2022-10-31T15:14:27;88.63;;;33.83;;
19519;SDS011;9904;52.246;20.898;2022-10-31T15:16:57;90.77;;;34.87;;
19519;SDS011;9904;52.246;20.898;2022-10-31T15:19:28;90.57;;;34.23;;
19519;SDS011;9904;52.246;20.898;2022-10-31T15:21:56;90.23;;;33.50;;
19519;SDS011;9904;52.246;20.898;2022-10-31T15:24:24;106.27;;;37.80;;
19519;SDS011;9904;52.246;20.898;2022-10-31T15:26:56;101.23;;;35.07;;
19519;SDS011;9904;52.246;20.898;2022-10-31T15:29:30;96.87;;;36.20;;
19519;SDS011;9904;52.246;20.898;2022-10-31T15:31:58;97.40;;;36.00;;
19519;SDS011;9904;52.246;20.898;2022-10-31T15:34:32;94.30;;;37.37;;
19519;SDS011;9904;52.246;20.898;2022-10-31T15:37:07;91.30;;;35.07;;
19519;SDS011;9904;52.246;20.898;2022-10-31T15:39:37;91.27;;;35.70;;
19519;SDS011;9904;52.246;20.898;2022-10-31T15:42:04;93.30;;;35.90;;
19519;SDS011;9904;52.246;20.898;2022-10-31T15:44:31;94.60;;;34.83;;
19519;SDS011;9904;52.246;20.898;2022-10-31T15:47:01;96.03;;;35.90;;
19519;SDS011;9904;52.246;20.898;2022-10-31T15:52:06;106.23;;;38.17;;
19519;SDS011;9904;52.246;20.898;2022-10-31T15:54:41;105.30;;;37.00;;
19519;SDS011;9904;52.246;20.898;2022-10-31T15:57:22;99.87;;;38.30;;
19519;SDS011;9904;52.246;20.898;2022-10-31T15:59:50;89.30;;;32.80;;
19519;SDS011;9904;52.246;20.898;2022-10-31T16:02:19;92.80;;;34.73;;
19519;SDS011;9904;52.246;20.898;2022-10-31T16:04:49;88.63;;;34.17;;
19519;SDS011;9904;52.246;20.898;2022-10-31T16:07:17;94.20;;;34.33;;
19519;SDS011;9904;52.246;20.898;2022-10-31T16:09:58;95.90;;;35.03;;
19519;SDS011;9904;52.246;20.898;2022-10-31T16:12:33;97.87;;;34.93;;
19519;SDS011;9904;52.246;20.898;2022-10-31T16:15:01;98.67;;;34.37;;
19519;SDS011;9904;52.246;20.898;2022-10-31T16:17:28;100.10;;;35.47;;
19519;SDS011;9904;52.246;20.898;2022-10-31T16:19:58;93.67;;;34.40;;